Terminal Aerodrome Forecast
Issued by NWS Louisville, KY

Home | Current Version | Previous Version | Text Only | Print | Product List | Glossary On
Versions: 1 2 3 4 5 6 7 8 9 10 11 12 13 14
000
FTUS43 KLMK 051122
TAFSDF
TAF
KSDF 051122Z 0512/0618 VRB04KT P6SM FEW250
     FM051500 09007KT P6SM SCT050
     FM060100 VRB04KT 6SM HZ FEW250
     FM060900 VRB03KT 5SM HZ FEW250=

USA.gov is the U.S. government's official web portal to all federal, state and local government web resources and services.